Time,TemperatureF,DewpointF,PressureIn,WindDirection,WindDirectionDegrees,WindSpeedMPH,WindSpeedGustMPH,Humidity,HourlyPrecipIn,Conditions,Clouds,dailyrainin,SoftwareType,DateUTC
2014-02-07 00:04:00,50.8,46.0,30.04,ENE,63,0.0,-999.0,84,-99.99,,,0.00,weatherlink.com 1.10,2014-02-07 08:04:00,
2014-02-07 00:22:00,50.4,46.0,30.05,ENE,63,0.0,-999.0,84,-99.99,,,0.00,weatherlink.com 1.10,2014-02-07 08:22:00,
2014-02-07 00:38:00,49.9,45.0,30.04,ENE,63,0.0,-999.0,84,-99.99,,,0.00,weatherlink.com 1.10,2014-02-07 08:38:00,
2014-02-07 00:54:00,49.8,45.0,30.04,ENE,63,0.0,-999.0,84,-99.99,,,0.00,weatherlink.com 1.10,2014-02-07 08:54:00,
2014-02-07 01:12:00,49.5,45.0,30.05,ENE,63,0.0,-999.0,84,-99.99,,,0.00,weatherlink.com 1.10,2014-02-07 09:12:00,
2014-02-07 01:28:00,49.2,45.0,30.04,NW,307,0.0,-999.0,84,-99.99,,,0.01,weatherlink.com 1.10,2014-02-07 09:28:00,
2014-02-07 01:46:00,49.2,45.0,30.05,NW,308,0.0,-999.0,84,-99.99,,,0.01,weatherlink.com 1.10,2014-02-07 09:46:00,
2014-02-07 02:02:00,49.2,45.0,30.05,NW,308,0.0,-999.0,84,-99.99,,,0.01,weatherlink.com 1.10,2014-02-07 10:02:00,
2014-02-07 02:19:00,49.0,45.0,30.05,NW,308,0.0,-999.0,85,-99.99,,,0.01,weatherlink.com 1.10,2014-02-07 10:19:00,
2014-02-07 02:36:00,48.6,44.0,30.05,NW,308,0.0,-999.0,84,-99.99,,,0.01,weatherlink.com 1.10,2014-02-07 10:36:00,
2014-02-07 02:53:00,48.6,44.0,30.06,NW,308,0.0,-999.0,84,-99.99,,,0.01,weatherlink.com 1.10,2014-02-07 10:53:00,
2014-02-07 03:09:00,49.0,45.0,30.05,NW,307,0.0,-999.0,85,-99.99,,,0.01,weatherlink.com 1.10,2014-02-07 11:09:00,
2014-02-07 03:27:00,49.0,45.0,30.06,NW,308,0.0,-999.0,85,-99.99,,,0.01,weatherlink.com 1.10,2014-02-07 11:27:00,
2014-02-07 03:43:00,49.0,45.0,30.05,NW,308,0.0,-999.0,85,-99.99,,,0.01,weatherlink.com 1.10,2014-02-07 11:43:00,
2014-02-07 04:00:00,48.6,44.0,30.05,NW,308,0.0,-999.0,85,-99.99,,,0.01,weatherlink.com 1.10,2014-02-07 12:00:00,
2014-02-07 04:17:00,48.2,44.0,30.05,NW,308,0.0,-999.0,85,-99.99,,,0.01,weatherlink.com 1.10,2014-02-07 12:17:00,
2014-02-07 04:34:00,48.5,44.0,30.06,NW,308,0.0,-999.0,85,-99.99,,,0.01,weatherlink.com 1.10,2014-02-07 12:34:00,
2014-02-07 04:51:00,48.3,44.0,30.07,NW,308,0.0,-999.0,85,-99.99,,,0.01,weatherlink.com 1.10,2014-02-07 12:51:00,
2014-02-07 05:07:00,47.6,43.0,30.08,NW,308,0.0,-999.0,85,-99.99,,,0.01,weatherlink.com 1.10,2014-02-07 13:07:00,
2014-02-07 05:24:00,46.7,43.0,30.09,NW,306,0.0,-999.0,85,-99.99,,,0.01,weatherlink.com 1.10,2014-02-07 13:24:00,
2014-02-07 05:41:00,46.8,43.0,30.09,NW,307,0.0,-999.0,85,-99.99,,,0.01,weatherlink.com 1.10,2014-02-07 13:41:00,
2014-02-07 05:58:00,47.2,43.0,30.09,NW,307,0.0,-999.0,85,-99.99,,,0.01,weatherlink.com 1.10,2014-02-07 13:58:00,
2014-02-07 06:14:00,47.2,43.0,30.10,NW,307,0.0,-999.0,85,-99.99,,,0.01,weatherlink.com 1.10,2014-02-07 14:14:00,
2014-02-07 06:32:00,46.0,42.0,30.11,NW,307,0.0,-999.0,85,-99.99,,,0.01,weatherlink.com 1.10,2014-02-07 14:32:00,
2014-02-07 06:48:00,45.7,42.0,30.11,NW,307,0.0,-999.0,85,-99.99,,,0.01,weatherlink.com 1.10,2014-02-07 14:48:00,
2014-02-07 07:05:00,45.5,41.0,30.11,WNW,303,4.0,-999.0,85,-99.99,,,0.01,weatherlink.com 1.10,2014-02-07 15:05:00,
2014-02-07 07:23:00,45.3,41.0,30.12,WNW,291,0.0,-999.0,84,-99.99,,,0.01,weatherlink.com 1.10,2014-02-07 15:23:00,
2014-02-07 07:39:00,45.7,42.0,30.12,WNW,292,0.0,-999.0,85,-99.99,,,0.01,weatherlink.com 1.10,2014-02-07 15:39:00,
2014-02-07 07:56:00,46.3,42.0,30.13,WNW,291,0.0,-999.0,85,-99.99,,,0.01,weatherlink.com 1.10,2014-02-07 15:56:00,
2014-02-07 08:12:00,47.7,43.0,30.14,NE,46,2.0,-999.0,85,-99.99,,,0.01,weatherlink.com 1.10,2014-02-07 16:12:00,
2014-02-07 08:29:00,49.6,45.0,30.14,NE,46,0.0,-999.0,85,-99.99,,,0.01,weatherlink.com 1.10,2014-02-07 16:29:00,
2014-02-07 08:46:00,49.8,46.0,30.15,NE,46,0.0,-999.0,85,-99.99,,,0.01,weatherlink.com 1.10,2014-02-07 16:46:00,
2014-02-07 09:03:00,50.7,46.0,30.15,NE,55,0.0,-999.0,85,-99.99,,,0.01,weatherlink.com 1.10,2014-02-07 17:03:00,
2014-02-07 09:20:00,51.4,47.0,30.15,NE,49,0.0,-999.0,84,-99.99,,,0.01,weatherlink.com 1.10,2014-02-07 17:20:00,
2014-02-07 09:36:00,53.3,48.0,30.15,ESE,103,5.0,-999.0,83,-99.99,,,0.01,weatherlink.com 1.10,2014-02-07 17:36:00,
2014-02-07 09:53:00,54.3,49.0,30.15,ENE,66,0.0,-999.0,81,-99.99,,,0.01,weatherlink.com 1.10,2014-02-07 17:53:00,
2014-02-07 10:11:00,55.7,50.0,30.16,East,94,7.0,-999.0,80,-99.99,,,0.01,weatherlink.com 1.10,2014-02-07 18:11:00,
2014-02-07 10:27:00,56.0,49.0,30.16,ENE,65,1.0,-999.0,76,-99.99,,,0.01,weatherlink.com 1.10,2014-02-07 18:27:00,
2014-02-07 10:43:00,57.5,49.0,30.16,ESE,115,0.0,-999.0,72,-99.99,,,0.01,weatherlink.com 1.10,2014-02-07 18:43:00,
2014-02-07 11:01:00,58.2,47.0,30.16,East,79,2.0,-999.0,67,-99.99,,,0.01,weatherlink.com 1.10,2014-02-07 19:01:00,
2014-02-07 11:17:00,59.0,47.0,30.16,East,88,0.0,-999.0,65,-99.99,,,0.01,weatherlink.com 1.10,2014-02-07 19:17:00,
2014-02-07 11:34:00,60.0,46.0,30.16,ENE,73,0.0,-999.0,61,-99.99,,,0.01,weatherlink.com 1.10,2014-02-07 19:34:00,
2014-02-07 11:51:00,60.7,46.0,30.15,East,81,0.0,-999.0,59,-99.99,,,0.01,weatherlink.com 1.10,2014-02-07 19:51:00,
2014-02-07 12:08:00,61.4,46.0,30.14,ESE,119,0.0,-999.0,58,-99.99,,,0.01,weatherlink.com 1.10,2014-02-07 20:08:00,
2014-02-07 12:25:00,60.7,45.0,30.14,SW,219,0.0,-999.0,57,-99.99,,,0.01,weatherlink.com 1.10,2014-02-07 20:25:00,
2014-02-07 12:41:00,60.6,46.0,30.13,SSW,206,0.0,-999.0,58,-99.99,,,0.01,weatherlink.com 1.10,2014-02-07 20:41:00,
2014-02-07 12:59:00,60.8,46.0,30.13,SSW,200,0.0,-999.0,59,-99.99,,,0.01,weatherlink.com 1.10,2014-02-07 20:59:00,
2014-02-07 13:15:00,60.5,46.0,30.12,SSW,211,7.0,-999.0,59,-99.99,,,0.01,weatherlink.com 1.10,2014-02-07 21:15:00,
2014-02-07 13:32:00,60.3,47.0,30.13,SSW,209,8.0,-999.0,63,-99.99,,,0.01,weatherlink.com 1.10,2014-02-07 21:32:00,
2014-02-07 13:48:00,59.7,48.0,30.13,SW,223,9.0,-999.0,65,-99.99,,,0.01,weatherlink.com 1.10,2014-02-07 21:48:00,
2014-02-07 14:06:00,59.7,48.0,30.12,SSE,165,0.0,-999.0,66,-99.99,,,0.01,weatherlink.com 1.10,2014-02-07 22:06:00,
2014-02-07 14:22:00,59.4,48.0,30.12,SSW,199,4.0,-999.0,66,-99.99,,,0.01,weatherlink.com 1.10,2014-02-07 22:22:00,
2014-02-07 14:39:00,59.0,48.0,30.11,WSW,246,4.0,-999.0,67,-99.99,,,0.01,weatherlink.com 1.10,2014-02-07 22:39:00,
2014-02-07 14:56:00,59.0,48.0,30.11,SSW,198,4.0,-999.0,67,-99.99,,,0.01,weatherlink.com 1.10,2014-02-07 22:56:00,
2014-02-07 15:12:00,59.5,48.0,30.10,SW,220,0.0,-999.0,66,-99.99,,,0.01,weatherlink.com 1.10,2014-02-07 23:12:00,
2014-02-07 15:46:00,58.2,48.0,30.10,SSW,204,0.0,-999.0,68,-99.99,,,0.01,weatherlink.com 1.10,2014-02-07 23:46:00,
2014-02-07 16:03:00,58.3,48.0,30.10,SW,223,5.0,-999.0,68,-99.99,,,0.01,weatherlink.com 1.10,2014-02-08 00:03:00,
2014-02-07 16:20:00,58.6,48.0,30.10,SSW,198,13.0,-999.0,67,-99.99,,,0.01,weatherlink.com 1.10,2014-02-08 00:20:00,
2014-02-07 16:37:00,57.8,47.0,30.11,SSW,195,3.0,-999.0,68,-99.99,,,0.01,weatherlink.com 1.10,2014-02-08 00:37:00,
2014-02-07 16:53:00,57.7,47.0,30.12,SW,221,0.0,-999.0,68,-99.99,,,0.01,weatherlink.com 1.10,2014-02-08 00:53:00,
2014-02-07 17:11:00,56.7,46.0,30.13,SSW,202,0.0,-999.0,68,-99.99,,,0.01,weatherlink.com 1.10,2014-02-08 01:11:00,
2014-02-07 17:27:00,56.4,46.0,30.13,SSW,199,1.0,-999.0,69,-99.99,,,0.01,weatherlink.com 1.10,2014-02-08 01:27:00,
2014-02-07 17:44:00,55.8,46.0,30.14,SSW,211,0.0,-999.0,70,-99.99,,,0.01,weatherlink.com 1.10,2014-02-08 01:44:00,
2014-02-07 18:00:00,55.5,46.0,30.13,SSW,203,1.0,-999.0,71,-99.99,,,0.01,weatherlink.com 1.10,2014-02-08 02:00:00,
2014-02-07 18:18:00,54.9,46.0,30.14,SSW,213,0.0,-999.0,73,-99.99,,,0.01,weatherlink.com 1.10,2014-02-08 02:18:00,
2014-02-07 18:34:00,54.6,46.0,30.16,SW,214,9.0,-999.0,74,-99.99,,,0.01,weatherlink.com 1.10,2014-02-08 02:34:00,
2014-02-07 18:51:00,54.5,47.0,30.16,SW,215,0.0,-999.0,75,-99.99,,,0.01,weatherlink.com 1.10,2014-02-08 02:51:00,
2014-02-07 19:08:00,54.4,47.0,30.18,SW,215,0.0,-999.0,75,-99.99,,,0.01,weatherlink.com 1.10,2014-02-08 03:08:00,
2014-02-07 19:25:00,54.5,47.0,30.18,SW,215,0.0,-999.0,75,-99.99,,,0.01,weatherlink.com 1.10,2014-02-08 03:25:00,
2014-02-07 19:41:00,54.5,47.0,30.17,SW,215,0.0,-999.0,76,-99.99,,,0.01,weatherlink.com 1.10,2014-02-08 03:41:00,
2014-02-07 19:59:00,54.3,47.0,30.17,SW,215,0.0,-999.0,76,-99.99,,,0.01,weatherlink.com 1.10,2014-02-08 03:59:00,
2014-02-07 20:16:00,54.3,47.0,30.18,SW,215,0.0,-999.0,76,-99.99,,,0.01,weatherlink.com 1.10,2014-02-08 04:16:00,
2014-02-07 20:31:00,54.4,47.0,30.18,SW,215,0.0,-999.0,77,-99.99,,,0.01,weatherlink.com 1.10,2014-02-08 04:31:00,
2014-02-07 20:47:00,54.4,47.0,30.18,SW,215,0.0,-999.0,77,-99.99,,,0.01,weatherlink.com 1.10,2014-02-08 04:47:00,
2014-02-07 21:04:00,54.4,48.0,30.19,SW,215,0.0,-999.0,78,-99.99,,,0.01,weatherlink.com 1.10,2014-02-08 05:04:00,
2014-02-07 21:21:00,54.4,48.0,30.20,SW,215,0.0,-999.0,78,-99.99,,,0.01,weatherlink.com 1.10,2014-02-08 05:21:00,
2014-02-07 21:38:00,54.2,47.0,30.20,SW,215,0.0,-999.0,78,-99.99,,,0.01,weatherlink.com 1.10,2014-02-08 05:38:00,
2014-02-07 21:54:00,54.0,47.0,30.20,SW,215,0.0,-999.0,78,-99.99,,,0.01,weatherlink.com 1.10,2014-02-08 05:54:00,
2014-02-07 22:12:00,54.0,47.0,30.20,SW,215,0.0,-999.0,78,-99.99,,,0.01,weatherlink.com 1.10,2014-02-08 06:12:00,
2014-02-07 22:28:00,54.1,47.0,30.19,SW,215,0.0,-999.0,78,-99.99,,,0.01,weatherlink.com 1.10,2014-02-08 06:28:00,
2014-02-07 22:45:00,54.1,47.0,30.20,SW,215,0.0,-999.0,78,-99.99,,,0.01,weatherlink.com 1.10,2014-02-08 06:45:00,
2014-02-07 23:01:00,54.2,47.0,30.20,SW,215,0.0,-999.0,78,-99.99,,,0.01,weatherlink.com 1.10,2014-02-08 07:01:00,
2014-02-07 23:19:00,54.1,47.0,30.22,West,267,0.0,-999.0,78,-99.99,,,0.01,weatherlink.com 1.10,2014-02-08 07:19:00,
2014-02-07 23:36:00,54.0,47.0,30.20,West,262,0.0,-999.0,78,-99.99,,,0.01,weatherlink.com 1.10,2014-02-08 07:36:00,
2014-02-07 23:52:00,53.8,47.0,30.20,West,261,0.0,-999.0,78,-99.99,,,0.01,weatherlink.com 1.10,2014-02-08 07:52:00,